createdAt,value
2023-03-16T00:00:58.460Z,65.50
2023-03-16T00:03:26.047Z,64.70
2023-03-16T00:05:54.870Z,65.00
2023-03-16T00:08:22.269Z,63.50
2023-03-16T00:10:49.499Z,61.80
2023-03-16T00:13:18.447Z,60.10
2023-03-16T00:15:55.979Z,59.80
2023-03-16T00:18:27.491Z,61.10
2023-03-16T00:20:59.335Z,62.70
2023-03-16T00:23:30.015Z,63.20
2023-03-16T00:25:59.563Z,63.70
2023-03-16T00:28:28.059Z,63.70
2023-03-16T00:31:01.084Z,64.00
2023-03-16T00:33:28.658Z,63.70
2023-03-16T00:36:04.097Z,64.10
2023-03-16T00:38:37.275Z,64.00
2023-03-16T00:41:06.906Z,65.00
2023-03-16T00:43:44.019Z,64.00
2023-03-16T00:46:17.009Z,63.80
2023-03-16T00:48:46.522Z,63.80
2023-03-16T00:51:17.003Z,64.80
2023-03-16T00:53:46.336Z,65.80
2023-03-16T00:56:14.239Z,66.90
2023-03-16T00:58:43.450Z,66.60
2023-03-16T01:01:15.587Z,66.30
2023-03-16T01:03:43.131Z,66.50
2023-03-16T01:06:14.463Z,66.70
2023-03-16T01:08:42.890Z,67.20
2023-03-16T01:11:18.958Z,67.00
2023-03-16T01:13:47.962Z,66.60
2023-03-16T01:16:23.395Z,66.30
2023-03-16T01:18:52.660Z,67.30
2023-03-16T01:21:21.862Z,66.20
2023-03-16T01:23:50.736Z,65.60
2023-03-16T01:26:19.400Z,66.80
2023-03-16T01:28:48.732Z,66.60
2023-03-16T01:31:17.155Z,67.50
2023-03-16T01:33:45.257Z,67.60
2023-03-16T01:36:19.018Z,65.90
2023-03-16T01:38:54.448Z,65.20
2023-03-16T01:41:24.455Z,67.50
2023-03-16T01:43:52.126Z,67.50
2023-03-16T01:46:25.166Z,67.60
2023-03-16T01:49:23.982Z,67.80
2023-03-16T01:52:08.316Z,68.60
2023-03-16T01:54:48.417Z,68.80
2023-03-16T01:57:20.501Z,68.50
2023-03-16T01:59:53.357Z,69.60
2023-03-16T02:02:24.201Z,70.50
2023-03-16T02:05:02.072Z,70.90
2023-03-16T02:07:34.853Z,71.90
2023-03-16T02:10:06.441Z,71.80
2023-03-16T02:12:34.129Z,71.80
2023-03-16T02:15:04.879Z,71.30
2023-03-16T02:17:34.512Z,70.60
2023-03-16T02:20:28.709Z,71.80
2023-03-16T02:22:57.001Z,72.50
2023-03-16T02:25:31.645Z,71.90
2023-03-16T02:28:21.252Z,71.90
2023-03-16T02:30:51.493Z,70.80
2023-03-16T02:33:21.542Z,70.70
2023-03-16T02:35:50.816Z,70.40
2023-03-16T02:38:18.440Z,69.60
2023-03-16T02:41:07.259Z,70.00
2023-03-16T02:43:38.080Z,70.00
2023-03-16T02:46:16.352Z,68.20
2023-03-16T02:49:03.331Z,69.20
2023-03-16T02:51:32.547Z,68.70
2023-03-16T02:54:00.148Z,68.90
2023-03-16T02:56:29.583Z,69.60
2023-03-16T02:58:58.352Z,69.80
2023-03-16T03:01:26.546Z,66.70
2023-03-16T03:03:55.309Z,69.10
2023-03-16T03:06:25.418Z,71.50
2023-03-16T03:08:52.913Z,70.50
2023-03-16T03:11:20.838Z,69.20
2023-03-16T03:13:48.287Z,70.60
2023-03-16T03:16:20.314Z,70.50
2023-03-16T03:18:49.791Z,69.60
2023-03-16T03:21:17.825Z,70.70
2023-03-16T03:23:46.838Z,70.90
2023-03-16T03:26:17.603Z,72.00
2023-03-16T03:28:46.629Z,71.90
2023-03-16T03:31:16.487Z,71.20
2023-03-16T03:33:44.658Z,70.30
2023-03-16T03:36:12.739Z,69.80
2023-03-16T03:38:41.196Z,69.70
2023-03-16T03:41:09.266Z,70.10
2023-03-16T03:43:39.183Z,70.10
2023-03-16T03:56:22.367Z,68.90
2023-03-16T03:58:50.006Z,70.00
2023-03-16T04:01:26.851Z,69.90
2023-03-16T04:03:54.229Z,70.10
2023-03-16T04:06:21.513Z,70.30
2023-03-16T04:08:49.424Z,70.20
2023-03-16T04:11:21.057Z,69.50
2023-03-16T04:13:53.555Z,70.40
2023-03-16T04:16:22.371Z,70.70
2023-03-16T04:18:56.661Z,70.90
2023-03-16T04:21:24.501Z,70.90
2023-03-16T04:23:55.304Z,71.10
2023-03-16T04:26:30.747Z,70.80
2023-03-16T04:28:58.536Z,70.90
2023-03-16T04:31:26.374Z,70.90
2023-03-16T04:33:54.915Z,70.50
2023-03-16T04:36:26.272Z,70.60
2023-03-16T04:38:55.185Z,70.20
2023-03-16T04:41:24.228Z,70.40
2023-03-16T04:44:00.237Z,70.20
2023-03-16T04:46:27.929Z,70.30
2023-03-16T04:48:58.729Z,70.80
2023-03-16T04:51:28.892Z,71.00
2023-03-16T04:54:05.022Z,71.00
2023-03-16T04:56:42.022Z,70.80
2023-03-16T04:59:17.497Z,70.00
2023-03-16T05:01:51.117Z,70.50
2023-03-16T05:04:19.798Z,70.50
2023-03-16T05:06:49.040Z,70.20
2023-03-16T05:09:21.193Z,70.30
2023-03-16T05:11:49.038Z,70.20
2023-03-16T05:14:16.240Z,70.60
2023-03-16T05:16:57.917Z,71.50
2023-03-16T05:19:25.329Z,70.70
2023-03-16T05:21:52.883Z,71.20
2023-03-16T05:24:20.435Z,71.00
2023-03-16T05:26:48.649Z,70.80
2023-03-16T05:29:18.292Z,71.50
2023-03-16T05:31:49.574Z,71.80
2023-03-16T05:34:21.293Z,71.90
2023-03-16T05:36:49.146Z,71.90
2023-03-16T05:39:18.129Z,72.50
2023-03-16T05:41:48.951Z,72.40
2023-03-16T05:44:21.946Z,71.60
2023-03-16T05:47:24.665Z,71.40
2023-03-16T05:49:56.473Z,71.60
2023-03-16T05:52:34.003Z,71.00
2023-03-16T05:55:09.967Z,70.20
2023-03-16T05:57:38.691Z,71.40
2023-03-16T06:00:15.840Z,71.70
2023-03-16T06:02:51.582Z,71.80
2023-03-16T06:05:25.375Z,71.60
2023-03-16T06:07:53.609Z,71.60
2023-03-16T06:10:21.327Z,71.90
2023-03-16T06:12:49.237Z,71.60
2023-03-16T06:15:19.450Z,71.10
2023-03-16T06:17:49.198Z,71.20
2023-03-16T06:20:32.081Z,71.20
2023-03-16T06:23:01.601Z,71.90
2023-03-16T06:25:29.233Z,72.00
2023-03-16T06:27:56.679Z,71.80
2023-03-16T06:30:25.203Z,72.00
2023-03-16T06:32:53.108Z,71.90
2023-03-16T06:35:21.676Z,71.30
2023-03-16T06:38:04.707Z,72.20
2023-03-16T06:41:01.920Z,71.60
2023-03-16T06:43:31.840Z,71.00
2023-03-16T06:46:03.035Z,70.60
2023-03-16T06:48:30.985Z,70.10
2023-03-16T06:50:58.764Z,70.10
2023-03-16T06:53:28.581Z,70.50
2023-03-16T06:55:57.299Z,70.50
2023-03-16T06:58:27.013Z,70.40
2023-03-16T07:00:57.974Z,70.20
2023-03-16T07:03:25.743Z,69.90
2023-03-16T07:05:59.860Z,69.50
2023-03-16T07:08:27.399Z,69.50
2023-03-16T07:10:54.767Z,68.70
2023-03-16T07:13:22.576Z,67.40
2023-03-16T07:15:55.090Z,67.20
2023-03-16T07:18:26.331Z,67.70
2023-03-16T07:20:55.117Z,67.70
2023-03-16T07:23:26.033Z,67.10
2023-03-16T07:25:58.672Z,66.30
2023-03-16T07:28:28.517Z,66.20
2023-03-16T07:31:04.309Z,66.10
2023-03-16T07:33:38.302Z,68.10
2023-03-16T07:36:11.180Z,68.20
2023-03-16T07:38:44.870Z,67.00
2023-03-16T07:41:14.670Z,66.80
2023-03-16T07:43:42.110Z,67.00
2023-03-16T07:46:15.078Z,66.80
2023-03-16T07:48:43.930Z,66.00
2023-03-16T07:51:14.562Z,64.70
2023-03-16T07:53:45.811Z,64.40
2023-03-16T07:56:18.472Z,65.60
2023-03-16T07:58:50.432Z,64.60
2023-03-16T08:01:17.863Z,64.20
2023-03-16T08:03:45.224Z,63.00
2023-03-16T08:06:13.477Z,60.20
2023-03-16T08:08:41.574Z,61.30
2023-03-16T08:11:11.617Z,61.00
2023-03-16T08:13:54.242Z,61.40
2023-03-16T08:16:22.928Z,60.60
2023-03-16T08:18:52.618Z,61.40
2023-03-16T08:21:20.577Z,60.70
2023-03-16T08:23:50.768Z,60.20
2023-03-16T08:26:24.035Z,60.70
2023-03-16T08:28:56.275Z,61.00
2023-03-16T08:31:25.688Z,59.70
2023-03-16T08:34:06.373Z,59.40
2023-03-16T08:36:39.468Z,58.90
2023-03-16T08:39:07.813Z,58.50
2023-03-16T08:41:43.986Z,56.50
2023-03-16T08:44:23.979Z,57.30
2023-03-16T08:46:52.567Z,57.60
2023-03-16T08:49:21.160Z,53.40
2023-03-16T08:51:55.003Z,52.60
2023-03-16T08:54:22.976Z,51.10
2023-03-16T08:56:52.097Z,53.40
2023-03-16T08:59:28.986Z,52.40
2023-03-16T09:01:57.016Z,53.30
2023-03-16T09:04:24.451Z,51.60
2023-03-16T09:07:05.725Z,51.80
2023-03-16T09:09:35.821Z,52.10
2023-03-16T09:12:04.604Z,50.10
2023-03-16T09:14:32.587Z,50.70
2023-03-16T09:16:59.852Z,52.20
2023-03-16T09:19:30.575Z,51.20
2023-03-16T09:22:00.583Z,50.80
2023-03-16T09:24:27.870Z,50.50
2023-03-16T09:26:56.158Z,49.40
2023-03-16T09:29:24.055Z,48.90
2023-03-16T09:31:51.770Z,49.30
2023-03-16T09:34:19.188Z,49.60
2023-03-16T09:36:46.502Z,49.10
2023-03-16T09:39:13.893Z,49.40
2023-03-16T09:41:49.321Z,48.40
2023-03-16T09:44:35.447Z,49.50
2023-03-16T09:47:05.120Z,47.10
2023-03-16T09:49:43.725Z,48.20
2023-03-16T09:52:14.010Z,47.70
2023-03-16T09:54:57.786Z,45.80
2023-03-16T09:57:28.176Z,47.50
2023-03-16T10:00:03.189Z,47.50
2023-03-16T10:03:06.523Z,45.80
2023-03-16T10:05:35.924Z,46.90
2023-03-16T10:08:28.820Z,45.80
2023-03-16T10:11:14.786Z,46.60
2023-03-16T10:14:11.768Z,44.40
2023-03-16T10:16:51.698Z,46.60
2023-03-16T10:19:51.827Z,46.90
2023-03-16T10:22:26.682Z,47.60
2023-03-16T10:25:09.169Z,46.90
2023-03-16T10:27:39.880Z,44.50
2023-03-16T10:30:28.588Z,45.00
2023-03-16T10:33:01.381Z,45.20
2023-03-16T10:35:46.582Z,46.30
2023-03-16T10:38:43.180Z,46.90
2023-03-16T10:41:20.639Z,46.50
2023-03-16T10:43:55.656Z,47.20
2023-03-16T10:46:27.144Z,45.30
2023-03-16T10:48:59.509Z,45.30
2023-03-16T10:51:33.449Z,45.00
2023-03-16T10:54:15.583Z,45.80
2023-03-16T10:56:43.026Z,43.40
2023-03-16T10:59:25.766Z,41.30
2023-03-16T11:01:53.668Z,42.30
2023-03-16T11:04:21.190Z,44.20
2023-03-16T11:06:58.288Z,44.50
2023-03-16T11:09:33.586Z,44.10
2023-03-16T11:12:14.062Z,42.10
2023-03-16T11:14:45.725Z,41.10
2023-03-16T11:17:18.114Z,44.20
2023-03-16T11:19:59.419Z,42.50
2023-03-16T11:22:27.880Z,43.40
2023-03-16T11:25:10.473Z,42.50
2023-03-16T11:27:53.340Z,43.00
2023-03-16T11:30:44.111Z,44.20
2023-03-16T11:33:14.640Z,44.50
2023-03-16T11:35:59.683Z,43.20
2023-03-16T11:38:27.205Z,42.20
2023-03-16T11:41:11.239Z,42.90
2023-03-16T11:43:50.308Z,44.20
2023-03-16T11:46:34.874Z,43.20
2023-03-16T11:49:11.860Z,40.30
2023-03-16T11:52:32.182Z,42.40
2023-03-16T11:55:02.307Z,43.20
2023-03-16T11:57:41.611Z,45.10
2023-03-16T12:00:15.208Z,43.10
2023-03-16T12:02:55.593Z,41.80
2023-03-16T12:05:49.102Z,42.20
2023-03-16T12:08:33.015Z,41.50
2023-03-16T12:11:05.691Z,43.50
2023-03-16T12:14:01.550Z,42.90
2023-03-16T12:16:50.298Z,41.20
2023-03-16T12:19:41.957Z,41.80
2023-03-16T12:22:29.448Z,39.90
2023-03-16T12:24:57.041Z,40.50
2023-03-16T12:27:33.798Z,41.90
2023-03-16T12:30:20.833Z,40.80
2023-03-16T12:33:07.825Z,41.20
2023-03-16T12:35:47.054Z,41.60
2023-03-16T12:38:48.280Z,40.50
2023-03-16T12:41:46.507Z,41.80
2023-03-16T12:44:22.254Z,40.50
2023-03-16T12:46:56.977Z,41.80
2023-03-16T12:49:25.474Z,41.20
2023-03-16T12:52:04.779Z,42.30
2023-03-16T12:54:32.255Z,40.40
2023-03-16T12:57:15.174Z,40.70
2023-03-16T12:59:50.845Z,43.40
2023-03-16T13:02:22.377Z,43.00
2023-03-16T13:05:01.297Z,41.30
2023-03-16T13:07:31.313Z,42.00
2023-03-16T13:10:10.215Z,42.50
2023-03-16T13:12:39.401Z,41.60
2023-03-16T13:15:23.042Z,40.80
2023-03-16T13:18:03.611Z,39.10
2023-03-16T13:20:34.989Z,39.50
2023-03-16T13:23:18.563Z,40.20
2023-03-16T13:26:00.557Z,37.70
2023-03-16T13:28:35.492Z,40.80
2023-03-16T13:31:05.003Z,40.60
2023-03-16T13:33:37.326Z,40.50
2023-03-16T13:36:06.569Z,40.00
2023-03-16T13:38:34.200Z,37.70
2023-03-16T13:41:10.538Z,39.60
2023-03-16T13:43:44.397Z,40.50
2023-03-16T13:46:20.192Z,42.10
2023-03-16T13:48:48.756Z,41.20
2023-03-16T13:51:21.306Z,38.30
2023-03-16T13:53:50.456Z,40.10
2023-03-16T13:56:27.186Z,42.20
2023-03-16T13:58:57.466Z,41.10
2023-03-16T14:01:30.944Z,42.30
2023-03-16T14:04:08.652Z,41.30
2023-03-16T14:06:37.372Z,39.90
2023-03-16T14:09:26.216Z,39.50
2023-03-16T14:11:54.896Z,40.40
2023-03-16T14:14:39.513Z,39.70
2023-03-16T14:17:19.618Z,37.80
2023-03-16T14:19:53.018Z,38.60
2023-03-16T14:22:24.178Z,39.20
2023-03-16T14:24:59.371Z,39.40
2023-03-16T14:27:43.947Z,40.00
2023-03-16T14:30:15.787Z,39.40
2023-03-16T14:32:54.691Z,39.20
2023-03-16T14:35:25.241Z,40.40
2023-03-16T14:37:55.755Z,39.60
2023-03-16T14:40:31.734Z,40.50
2023-03-16T14:43:03.939Z,40.60
2023-03-16T14:45:40.810Z,38.90
2023-03-16T14:48:21.105Z,39.90
2023-03-16T14:50:57.941Z,39.40
2023-03-16T14:53:28.679Z,38.80
2023-03-16T14:55:57.163Z,38.50
2023-03-16T14:58:25.382Z,39.70
2023-03-16T15:03:53.763Z,40.10
2023-03-16T15:06:21.693Z,39.30
2023-03-16T15:08:51.007Z,37.90
2023-03-16T15:11:21.856Z,36.80
2023-03-16T15:13:49.491Z,36.20
2023-03-16T15:16:17.731Z,35.90
2023-03-16T15:18:45.325Z,38.60
2023-03-16T15:21:20.954Z,36.70
2023-03-16T15:23:48.816Z,37.70
2023-03-16T15:26:24.487Z,36.60
2023-03-16T15:28:52.768Z,36.80
2023-03-16T15:31:20.214Z,35.20
2023-03-16T15:33:47.504Z,34.80
2023-03-16T15:36:18.411Z,35.20
2023-03-16T15:38:49.589Z,34.50
2023-03-16T15:41:18.306Z,34.60
2023-03-16T15:43:45.995Z,33.80
2023-03-16T15:46:14.980Z,33.80
2023-03-16T15:48:42.699Z,33.80
2023-03-16T15:51:22.082Z,34.70
2023-03-16T15:53:56.758Z,34.70
2023-03-16T15:56:30.476Z,35.50
2023-03-16T15:59:01.419Z,35.70
2023-03-16T16:01:34.393Z,35.60
2023-03-16T16:04:01.845Z,35.40
2023-03-16T16:06:30.534Z,35.30
2023-03-16T16:08:58.401Z,35.10
2023-03-16T16:11:31.127Z,35.50
2023-03-16T16:13:59.659Z,36.70
2023-03-16T16:16:32.068Z,37.20
2023-03-16T16:19:00.528Z,38.70
2023-03-16T16:21:31.333Z,39.50
2023-03-16T16:23:59.273Z,41.30
2023-03-16T16:26:41.618Z,42.60
2023-03-16T16:29:18.215Z,43.10
2023-03-16T16:31:45.777Z,42.40
2023-03-16T16:34:16.094Z,43.10
2023-03-16T16:36:44.087Z,43.20
2023-03-16T16:39:12.330Z,44.10
2023-03-16T16:41:40.774Z,43.90
2023-03-16T16:44:21.766Z,43.20
2023-03-16T16:46:51.938Z,44.50
2023-03-16T16:49:24.350Z,46.00
2023-03-16T16:51:53.448Z,46.80
2023-03-16T16:54:24.471Z,46.20
2023-03-16T16:56:53.990Z,46.70
2023-03-16T16:59:25.290Z,48.70
2023-03-16T17:01:54.204Z,46.90
2023-03-16T17:04:24.937Z,47.70
2023-03-16T17:06:55.817Z,48.60
2023-03-16T17:09:23.688Z,48.10
2023-03-16T17:11:51.641Z,49.00
2023-03-16T17:14:21.501Z,48.90
2023-03-16T17:16:51.946Z,49.60
2023-03-16T17:19:25.010Z,50.90
2023-03-16T17:21:55.663Z,47.60
2023-03-16T17:24:24.517Z,48.30
2023-03-16T17:26:55.735Z,49.40
2023-03-16T17:29:27.524Z,51.90
2023-03-16T17:31:54.708Z,49.40
2023-03-16T17:34:24.858Z,48.90
2023-03-16T17:36:52.905Z,51.00
2023-03-16T17:39:22.577Z,50.90
2023-03-16T17:42:00.460Z,51.80
2023-03-16T17:44:36.772Z,50.40
2023-03-16T17:47:12.204Z,54.00
2023-03-16T17:49:41.108Z,54.70
2023-03-16T17:52:36.784Z,53.00
2023-03-16T17:55:06.571Z,54.10
2023-03-16T17:57:34.705Z,54.80
2023-03-16T18:00:06.204Z,52.60
2023-03-16T18:02:34.815Z,53.00
2023-03-16T18:05:05.817Z,54.00
2023-03-16T18:07:33.246Z,52.60
2023-03-16T18:10:00.946Z,55.30
2023-03-16T18:12:28.476Z,53.00
2023-03-16T18:14:58.724Z,54.00
2023-03-16T18:17:32.578Z,54.90
2023-03-16T18:20:00.560Z,54.60
2023-03-16T18:22:28.086Z,54.20
2023-03-16T18:24:56.290Z,56.30
2023-03-16T18:27:24.532Z,53.40
2023-03-16T18:29:51.879Z,52.80
2023-03-16T18:32:30.470Z,53.40
2023-03-16T18:34:58.676Z,54.80
2023-03-16T18:37:30.620Z,53.80
2023-03-16T18:39:58.596Z,53.90
2023-03-16T18:42:28.192Z,55.20
2023-03-16T18:44:55.913Z,53.10
2023-03-16T18:47:24.600Z,54.80
2023-03-16T18:49:54.243Z,54.50
2023-03-16T18:52:24.162Z,55.40
2023-03-16T18:54:53.129Z,55.40
2023-03-16T18:57:23.459Z,56.60
2023-03-16T18:59:51.848Z,56.70
2023-03-16T19:02:22.018Z,56.30
2023-03-16T19:04:49.843Z,56.40
2023-03-16T19:07:30.611Z,56.90
2023-03-16T19:09:58.594Z,56.00
2023-03-16T19:12:26.434Z,56.30
2023-03-16T19:14:53.803Z,56.40
2023-03-16T19:17:21.212Z,57.20
2023-03-16T19:19:49.006Z,58.00
2023-03-16T19:22:26.076Z,55.70
2023-03-16T19:24:56.430Z,55.30
2023-03-16T19:27:25.703Z,55.80
2023-03-16T19:29:54.212Z,55.50
2023-03-16T19:32:22.381Z,56.40
2023-03-16T19:34:50.551Z,57.00
2023-03-16T19:37:22.888Z,56.60
2023-03-16T19:39:50.376Z,56.70
2023-03-16T19:42:17.632Z,57.20
2023-03-16T19:44:47.910Z,56.30
2023-03-16T19:47:29.815Z,55.40
2023-03-16T19:49:59.329Z,55.60
2023-03-16T19:52:36.711Z,56.30
2023-03-16T19:55:05.330Z,56.10
2023-03-16T19:57:34.601Z,56.00
2023-03-16T20:00:02.448Z,54.50
2023-03-16T20:02:40.856Z,57.40
2023-03-16T20:05:15.468Z,55.10
2023-03-16T20:07:43.176Z,56.20
2023-03-16T20:10:16.830Z,56.80
2023-03-16T20:12:44.875Z,56.90
2023-03-16T20:15:18.809Z,56.70
2023-03-16T20:17:47.294Z,56.30
2023-03-16T20:20:24.227Z,57.80
2023-03-16T20:22:53.906Z,56.90
2023-03-16T20:25:23.804Z,56.50
2023-03-16T20:28:02.237Z,57.00
2023-03-16T20:30:31.062Z,56.90
2023-03-16T20:32:58.922Z,56.40
2023-03-16T20:35:29.626Z,57.00
2023-03-16T20:37:58.706Z,58.30
2023-03-16T20:40:26.477Z,57.20
2023-03-16T20:43:01.637Z,55.10
2023-03-16T20:45:30.718Z,56.60
2023-03-16T20:47:58.731Z,57.50
2023-03-16T20:50:29.301Z,57.10
2023-03-16T20:52:57.367Z,57.00
2023-03-16T20:55:27.413Z,56.50
2023-03-16T20:57:55.617Z,55.70
2023-03-16T21:00:42.429Z,56.10
2023-03-16T21:03:19.393Z,56.60
2023-03-16T21:05:47.541Z,54.30
2023-03-16T21:08:15.864Z,55.50
2023-03-16T21:10:45.595Z,54.40
2023-03-16T21:13:24.754Z,54.70
2023-03-16T21:15:59.148Z,54.20
2023-03-16T21:18:26.868Z,53.40
2023-03-16T21:20:56.530Z,53.30
2023-03-16T21:23:24.467Z,54.60
2023-03-16T21:25:56.318Z,54.40
2023-03-16T21:28:26.639Z,53.60
2023-03-16T21:30:59.195Z,54.30
2023-03-16T21:33:37.689Z,52.90
2023-03-16T21:36:08.420Z,53.20
2023-03-16T21:38:36.375Z,53.10
2023-03-16T21:41:03.928Z,54.20
2023-03-16T21:43:31.757Z,53.90
2023-03-16T21:46:00.271Z,53.90
2023-03-16T21:48:34.679Z,52.60
2023-03-16T21:51:02.311Z,54.40
2023-03-16T21:53:33.493Z,53.30
2023-03-16T21:56:01.542Z,53.90
2023-03-16T21:58:28.821Z,52.50
2023-03-16T22:00:59.831Z,54.80
2023-03-16T22:03:50.548Z,54.00
2023-03-16T22:06:19.327Z,53.30
2023-03-16T22:08:47.321Z,52.70
2023-03-16T22:11:20.962Z,52.90
2023-03-16T22:13:50.286Z,53.60
2023-03-16T22:16:20.873Z,54.10
2023-03-16T22:18:50.601Z,53.20
2023-03-16T22:21:39.356Z,54.40
2023-03-16T22:24:14.139Z,53.00
2023-03-16T22:26:41.779Z,53.50
2023-03-16T22:29:35.548Z,54.30
2023-03-16T22:32:07.716Z,54.20
2023-03-16T22:34:45.770Z,55.40
2023-03-16T22:37:18.829Z,54.80
2023-03-16T22:39:47.634Z,54.40
2023-03-16T22:42:21.068Z,56.90
2023-03-16T22:44:48.406Z,57.80
2023-03-16T22:47:22.974Z,57.60
2023-03-16T22:49:50.643Z,56.70
2023-03-16T22:52:19.037Z,57.10
2023-03-16T22:54:47.762Z,58.40
2023-03-16T22:57:17.819Z,56.20
2023-03-16T22:59:47.016Z,56.10
2023-03-16T23:02:15.474Z,57.60
2023-03-16T23:04:42.847Z,58.50
2023-03-16T23:07:14.295Z,57.20
2023-03-16T23:09:42.180Z,58.70
2023-03-16T23:12:21.544Z,57.20
2023-03-16T23:14:48.867Z,59.40
2023-03-16T23:17:18.956Z,58.80
2023-03-16T23:19:48.309Z,56.90
2023-03-16T23:22:16.299Z,60.30
2023-03-16T23:24:44.184Z,60.60
2023-03-16T23:27:18.309Z,59.70
2023-03-16T23:29:46.146Z,59.30
2023-03-16T23:32:17.134Z,59.70
2023-03-16T23:34:45.124Z,59.10
2023-03-16T23:37:12.786Z,59.70
2023-03-16T23:39:40.178Z,57.00
2023-03-16T23:42:07.721Z,60.40
2023-03-16T23:44:35.914Z,59.90
2023-03-16T23:47:03.237Z,60.00
2023-03-16T23:49:41.932Z,58.30
2023-03-16T23:52:13.537Z,58.70
2023-03-16T23:54:41.161Z,59.30
2023-03-16T23:57:09.463Z,59.70
2023-03-16T23:59:37.085Z,56.60
